sensor_id;sensor_type;location;lat;lon;timestamp;P1;durP1;ratioP1;P2;durP2;ratioP2
18647;SDS011;9453;50.294;18.644;2023-02-26T05:03:24;4.60;;;3.37;;
18647;SDS011;9453;50.294;18.644;2023-02-26T05:05:51;8.33;;;3.80;;
18647;SDS011;9453;50.294;18.644;2023-02-26T05:08:18;9.57;;;3.77;;
18647;SDS011;9453;50.294;18.644;2023-02-26T05:10:45;9.37;;;3.57;;
18647;SDS011;9453;50.294;18.644;2023-02-26T05:13:13;5.77;;;3.10;;
18647;SDS011;9453;50.294;18.644;2023-02-26T05:15:40;5.47;;;2.77;;
18647;SDS011;9453;50.294;18.644;2023-02-26T05:18:07;8.40;;;3.37;;
18647;SDS011;9453;50.294;18.644;2023-02-26T05:20:35;6.87;;;3.07;;
18647;SDS011;9453;50.294;18.644;2023-02-26T05:23:02;3.97;;;2.60;;
18647;SDS011;9453;50.294;18.644;2023-02-26T05:25:33;7.13;;;3.00;;
18647;SDS011;9453;50.294;18.644;2023-02-26T05:28:03;4.97;;;3.03;;
18647;SDS011;9453;50.294;18.644;2023-02-26T05:30:30;9.13;;;3.00;;
18647;SDS011;9453;50.294;18.644;2023-02-26T05:32:57;5.70;;;2.80;;
18647;SDS011;9453;50.294;18.644;2023-02-26T05:35:25;5.87;;;3.23;;
18647;SDS011;9453;50.294;18.644;2023-02-26T05:37:53;8.60;;;3.43;;
18647;SDS011;9453;50.294;18.644;2023-02-26T05:40:20;7.73;;;3.07;;
18647;SDS011;9453;50.294;18.644;2023-02-26T05:42:48;6.70;;;3.30;;
18647;SDS011;9453;50.294;18.644;2023-02-26T05:45:16;7.87;;;3.30;;
18647;SDS011;9453;50.294;18.644;2023-02-26T05:47:43;7.03;;;3.53;;
18647;SDS011;9453;50.294;18.644;2023-02-26T05:50:10;11.83;;;3.40;;
18647;SDS011;9453;50.294;18.644;2023-02-26T05:52:38;6.40;;;3.30;;
18647;SDS011;9453;50.294;18.644;2023-02-26T05:55:07;6.60;;;3.03;;
18647;SDS011;9453;50.294;18.644;2023-02-26T05:57:35;11.60;;;3.33;;
18647;SDS011;9453;50.294;18.644;2023-02-26T06:00:02;7.30;;;3.20;;
18647;SDS011;9453;50.294;18.644;2023-02-26T06:02:30;8.43;;;3.73;;
18647;SDS011;9453;50.294;18.644;2023-02-26T06:04:57;10.23;;;3.60;;
18647;SDS011;9453;50.294;18.644;2023-02-26T06:07:24;8.70;;;3.10;;
18647;SDS011;9453;50.294;18.644;2023-02-26T06:09:51;6.70;;;3.77;;
18647;SDS011;9453;50.294;18.644;2023-02-26T06:12:19;6.77;;;3.40;;
18647;SDS011;9453;50.294;18.644;2023-02-26T06:14:46;5.87;;;3.30;;
18647;SDS011;9453;50.294;18.644;2023-02-26T06:17:13;9.23;;;3.13;;
18647;SDS011;9453;50.294;18.644;2023-02-26T06:19:40;8.33;;;3.10;;
18647;SDS011;9453;50.294;18.644;2023-02-26T06:22:09;7.33;;;3.30;;
18647;SDS011;9453;50.294;18.644;2023-02-26T06:24:35;8.10;;;3.00;;
18647;SDS011;9453;50.294;18.644;2023-02-26T06:27:02;6.93;;;3.50;;
18647;SDS011;9453;50.294;18.644;2023-02-26T06:29:31;10.23;;;3.70;;
18647;SDS011;9453;50.294;18.644;2023-02-26T06:31:58;6.90;;;3.23;;
18647;SDS011;9453;50.294;18.644;2023-02-26T06:34:25;6.27;;;3.20;;
18647;SDS011;9453;50.294;18.644;2023-02-26T06:36:52;5.87;;;3.53;;
18647;SDS011;9453;50.294;18.644;2023-02-26T06:39:19;6.07;;;3.33;;
18647;SDS011;9453;50.294;18.644;2023-02-26T06:41:46;6.50;;;3.00;;
18647;SDS011;9453;50.294;18.644;2023-02-26T06:44:13;7.40;;;3.27;;
18647;SDS011;9453;50.294;18.644;2023-02-26T06:46:41;6.23;;;2.90;;
18647;SDS011;9453;50.294;18.644;2023-02-26T06:49:08;6.40;;;3.40;;
18647;SDS011;9453;50.294;18.644;2023-02-26T06:51:35;14.07;;;4.00;;
18647;SDS011;9453;50.294;18.644;2023-02-26T06:54:02;8.37;;;3.50;;
18647;SDS011;9453;50.294;18.644;2023-02-26T06:56:30;5.97;;;3.03;;
18647;SDS011;9453;50.294;18.644;2023-02-26T06:58:57;32.97;;;11.07;;
18647;SDS011;9453;50.294;18.644;2023-02-26T07:01:24;11.90;;;4.47;;
18647;SDS011;9453;50.294;18.644;2023-02-26T07:03:52;11.17;;;4.33;;
18647;SDS011;9453;50.294;18.644;2023-02-26T07:06:19;7.57;;;3.60;;
18647;SDS011;9453;50.294;18.644;2023-02-26T07:08:46;6.10;;;3.53;;
18647;SDS011;9453;50.294;18.644;2023-02-26T07:11:13;9.53;;;3.83;;
18647;SDS011;9453;50.294;18.644;2023-02-26T07:13:40;11.30;;;4.27;;
18647;SDS011;9453;50.294;18.644;2023-02-26T07:16:07;8.00;;;3.90;;
18647;SDS011;9453;50.294;18.644;2023-02-26T07:18:34;6.97;;;3.60;;
18647;SDS011;9453;50.294;18.644;2023-02-26T07:21:04;12.77;;;4.73;;
18647;SDS011;9453;50.294;18.644;2023-02-26T07:23:32;9.53;;;3.87;;
18647;SDS011;9453;50.294;18.644;2023-02-26T07:25:59;7.40;;;3.93;;
18647;SDS011;9453;50.294;18.644;2023-02-26T07:28:27;10.67;;;4.67;;
18647;SDS011;9453;50.294;18.644;2023-02-26T07:30:54;11.60;;;5.07;;
18647;SDS011;9453;50.294;18.644;2023-02-26T07:33:22;12.27;;;5.03;;
18647;SDS011;9453;50.294;18.644;2023-02-26T07:35:50;9.47;;;5.07;;
18647;SDS011;9453;50.294;18.644;2023-02-26T07:38:18;9.37;;;4.37;;
18647;SDS011;9453;50.294;18.644;2023-02-26T07:40:46;12.30;;;4.40;;
18647;SDS011;9453;50.294;18.644;2023-02-26T07:43:13;8.23;;;4.20;;
18647;SDS011;9453;50.294;18.644;2023-02-26T07:45:40;9.73;;;4.70;;
18647;SDS011;9453;50.294;18.644;2023-02-26T07:48:07;12.63;;;4.83;;
18647;SDS011;9453;50.294;18.644;2023-02-26T07:50:33;10.37;;;4.67;;
18647;SDS011;9453;50.294;18.644;2023-02-26T07:53:00;8.80;;;4.70;;
18647;SDS011;9453;50.294;18.644;2023-02-26T07:55:29;7.17;;;3.87;;
18647;SDS011;9453;50.294;18.644;2023-02-26T07:57:55;6.43;;;4.03;;
18647;SDS011;9453;50.294;18.644;2023-02-26T08:00:22;5.97;;;3.80;;
18647;SDS011;9453;50.294;18.644;2023-02-26T08:02:49;9.00;;;3.90;;
18647;SDS011;9453;50.294;18.644;2023-02-26T08:05:16;5.93;;;3.70;;
18647;SDS011;9453;50.294;18.644;2023-02-26T08:07:44;7.50;;;3.63;;
18647;SDS011;9453;50.294;18.644;2023-02-26T08:10:11;6.80;;;3.43;;
18647;SDS011;9453;50.294;18.644;2023-02-26T08:12:39;10.00;;;3.73;;
18647;SDS011;9453;50.294;18.644;2023-02-26T08:15:06;9.00;;;4.70;;
18647;SDS011;9453;50.294;18.644;2023-02-26T08:17:36;10.83;;;3.90;;
18647;SDS011;9453;50.294;18.644;2023-02-26T08:20:03;9.43;;;3.23;;
18647;SDS011;9453;50.294;18.644;2023-02-26T08:22:30;5.40;;;2.70;;
18647;SDS011;9453;50.294;18.644;2023-02-26T08:24:57;5.70;;;2.60;;
18647;SDS011;9453;50.294;18.644;2023-02-26T08:27:26;5.20;;;2.60;;
18647;SDS011;9453;50.294;18.644;2023-02-26T08:29:55;5.70;;;2.67;;
18647;SDS011;9453;50.294;18.644;2023-02-26T08:32:22;11.50;;;5.50;;
18647;SDS011;9453;50.294;18.644;2023-02-26T08:34:51;7.47;;;4.53;;
18647;SDS011;9453;50.294;18.644;2023-02-26T08:37:18;8.83;;;3.70;;
18647;SDS011;9453;50.294;18.644;2023-02-26T08:39:46;6.87;;;3.70;;
18647;SDS011;9453;50.294;18.644;2023-02-26T08:42:13;5.87;;;3.47;;
18647;SDS011;9453;50.294;18.644;2023-02-26T08:44:41;9.90;;;4.00;;
18647;SDS011;9453;50.294;18.644;2023-02-26T08:47:09;9.93;;;3.97;;
18647;SDS011;9453;50.294;18.644;2023-02-26T08:49:36;6.27;;;3.27;;
18647;SDS011;9453;50.294;18.644;2023-02-26T08:52:04;9.63;;;3.60;;
18647;SDS011;9453;50.294;18.644;2023-02-26T08:54:31;4.93;;;2.77;;
18647;SDS011;9453;50.294;18.644;2023-02-26T08:56:59;4.80;;;2.27;;
18647;SDS011;9453;50.294;18.644;2023-02-26T08:59:26;5.67;;;2.47;;
18647;SDS011;9453;50.294;18.644;2023-02-26T09:01:53;18.00;;;6.80;;
18647;SDS011;9453;50.294;18.644;2023-02-26T09:04:21;4.17;;;2.63;;
18647;SDS011;9453;50.294;18.644;2023-02-26T09:06:48;4.77;;;2.00;;
18647;SDS011;9453;50.294;18.644;2023-02-26T09:09:18;2.27;;;1.07;;
18647;SDS011;9453;50.294;18.644;2023-02-26T09:14:15;2.23;;;0.80;;
18647;SDS011;9453;50.294;18.644;2023-02-26T09:16:42;3.53;;;1.00;;
18647;SDS011;9453;50.294;18.644;2023-02-26T09:19:09;2.93;;;1.67;;
18647;SDS011;9453;50.294;18.644;2023-02-26T09:21:38;4.13;;;1.60;;
18647;SDS011;9453;50.294;18.644;2023-02-26T09:24:05;2.97;;;1.50;;
18647;SDS011;9453;50.294;18.644;2023-02-26T09:26:33;3.77;;;1.50;;
18647;SDS011;9453;50.294;18.644;2023-02-26T09:29:02;3.50;;;1.60;;
18647;SDS011;9453;50.294;18.644;2023-02-26T09:31:29;5.10;;;1.90;;
18647;SDS011;9453;50.294;18.644;2023-02-26T09:33:57;3.87;;;1.70;;
18647;SDS011;9453;50.294;18.644;2023-02-26T09:36:24;3.43;;;1.27;;
18647;SDS011;9453;50.294;18.644;2023-02-26T09:38:53;3.17;;;1.80;;
18647;SDS011;9453;50.294;18.644;2023-02-26T09:43:48;5.00;;;2.30;;
18647;SDS011;9453;50.294;18.644;2023-02-26T09:46:31;4.57;;;2.00;;
18647;SDS011;9453;50.294;18.644;2023-02-26T09:49:06;4.17;;;2.20;;
18647;SDS011;9453;50.294;18.644;2023-02-26T09:51:44;3.47;;;1.93;;
18647;SDS011;9453;50.294;18.644;2023-02-26T09:54:16;4.90;;;2.67;;
18647;SDS011;9453;50.294;18.644;2023-02-26T09:56:46;5.33;;;2.60;;
18647;SDS011;9453;50.294;18.644;2023-02-26T09:59:15;5.33;;;2.27;;
18647;SDS011;9453;50.294;18.644;2023-02-26T10:04:13;5.00;;;2.67;;
18647;SDS011;9453;50.294;18.644;2023-02-26T10:06:52;6.73;;;3.00;;
18647;SDS011;9453;50.294;18.644;2023-02-26T10:09:34;6.03;;;3.03;;
18647;SDS011;9453;50.294;18.644;2023-02-26T10:12:12;4.67;;;2.87;;
18647;SDS011;9453;50.294;18.644;2023-02-26T10:14:42;5.60;;;2.47;;
18647;SDS011;9453;50.294;18.644;2023-02-26T10:17:16;4.57;;;2.77;;
18647;SDS011;9453;50.294;18.644;2023-02-26T10:19:49;6.70;;;2.80;;
18647;SDS011;9453;50.294;18.644;2023-02-26T10:22:21;5.77;;;2.80;;
18647;SDS011;9453;50.294;18.644;2023-02-26T10:24:54;4.20;;;2.53;;
18647;SDS011;9453;50.294;18.644;2023-02-26T10:27:33;6.23;;;2.90;;
18647;SDS011;9453;50.294;18.644;2023-02-26T10:30:09;5.53;;;3.00;;
18647;SDS011;9453;50.294;18.644;2023-02-26T10:32:45;7.03;;;3.47;;
18647;SDS011;9453;50.294;18.644;2023-02-26T10:35:20;11.07;;;3.40;;
18647;SDS011;9453;50.294;18.644;2023-02-26T10:37:52;8.40;;;3.90;;
18647;SDS011;9453;50.294;18.644;2023-02-26T10:40:26;6.93;;;3.80;;
18647;SDS011;9453;50.294;18.644;2023-02-26T10:42:58;11.67;;;4.43;;
18647;SDS011;9453;50.294;18.644;2023-02-26T10:45:34;6.90;;;3.40;;
18647;SDS011;9453;50.294;18.644;2023-02-26T10:48:15;7.50;;;2.87;;
18647;SDS011;9453;50.294;18.644;2023-02-26T10:50:53;5.53;;;2.57;;
18647;SDS011;9453;50.294;18.644;2023-02-26T10:53:22;5.67;;;2.77;;
18647;SDS011;9453;50.294;18.644;2023-02-26T10:55:58;4.53;;;2.30;;
18647;SDS011;9453;50.294;18.644;2023-02-26T10:58:30;5.20;;;2.30;;
18647;SDS011;9453;50.294;18.644;2023-02-26T11:00:57;5.10;;;2.40;;
18647;SDS011;9453;50.294;18.644;2023-02-26T11:03:28;4.57;;;2.23;;
18647;SDS011;9453;50.294;18.644;2023-02-26T11:05:57;3.87;;;2.20;;
18647;SDS011;9453;50.294;18.644;2023-02-26T11:08:25;5.33;;;2.47;;
18647;SDS011;9453;50.294;18.644;2023-02-26T11:10:56;5.70;;;2.07;;
18647;SDS011;9453;50.294;18.644;2023-02-26T11:13:26;5.33;;;2.00;;
18647;SDS011;9453;50.294;18.644;2023-02-26T11:15:56;4.30;;;2.07;;
18647;SDS011;9453;50.294;18.644;2023-02-26T11:18:27;3.80;;;2.10;;
18647;SDS011;9453;50.294;18.644;2023-02-26T11:21:05;2.70;;;1.70;;
18647;SDS011;9453;50.294;18.644;2023-02-26T11:23:34;5.47;;;1.97;;
18647;SDS011;9453;50.294;18.644;2023-02-26T11:26:15;6.53;;;2.60;;
18647;SDS011;9453;50.294;18.644;2023-02-26T11:28:45;6.27;;;2.27;;
18647;SDS011;9453;50.294;18.644;2023-02-26T11:31:18;5.23;;;2.30;;
18647;SDS011;9453;50.294;18.644;2023-02-26T11:33:48;5.13;;;1.97;;
18647;SDS011;9453;50.294;18.644;2023-02-26T11:53:24;2.83;;;1.80;;
18647;SDS011;9453;50.294;18.644;2023-02-26T11:55:59;4.70;;;1.87;;
18647;SDS011;9453;50.294;18.644;2023-02-26T11:58:31;6.33;;;2.63;;
18647;SDS011;9453;50.294;18.644;2023-02-26T12:01:02;4.33;;;1.80;;
18647;SDS011;9453;50.294;18.644;2023-02-26T12:03:31;6.30;;;2.47;;
18647;SDS011;9453;50.294;18.644;2023-02-26T12:06:03;5.28;;;2.28;;
18647;SDS011;9453;50.294;18.644;2023-02-26T12:08:33;5.33;;;2.37;;
18647;SDS011;9453;50.294;18.644;2023-02-26T12:11:11;4.53;;;2.23;;
18647;SDS011;9453;50.294;18.644;2023-02-26T12:13:58;4.27;;;2.20;;
18647;SDS011;9453;50.294;18.644;2023-02-26T12:16:37;5.20;;;2.70;;
18647;SDS011;9453;50.294;18.644;2023-02-26T12:19:15;6.13;;;2.50;;
18647;SDS011;9453;50.294;18.644;2023-02-26T12:21:56;7.50;;;2.70;;
18647;SDS011;9453;50.294;18.644;2023-02-26T12:24:53;6.27;;;2.40;;
18647;SDS011;9453;50.294;18.644;2023-02-26T12:27:36;8.87;;;3.07;;
18647;SDS011;9453;50.294;18.644;2023-02-26T12:30:19;6.13;;;2.40;;
18647;SDS011;9453;50.294;18.644;2023-02-26T12:33:00;6.87;;;2.63;;
18647;SDS011;9453;50.294;18.644;2023-02-26T12:35:44;6.97;;;2.90;;
18647;SDS011;9453;50.294;18.644;2023-02-26T12:38:24;4.37;;;2.70;;
18647;SDS011;9453;50.294;18.644;2023-02-26T12:43:56;6.40;;;2.57;;
18647;SDS011;9453;50.294;18.644;2023-02-26T12:46:42;4.87;;;2.87;;
18647;SDS011;9453;50.294;18.644;2023-02-26T12:49:31;6.10;;;2.90;;
18647;SDS011;9453;50.294;18.644;2023-02-26T12:52:26;7.30;;;3.03;;
18647;SDS011;9453;50.294;18.644;2023-02-26T12:55:22;14.37;;;5.37;;
18647;SDS011;9453;50.294;18.644;2023-02-26T12:58:06;7.37;;;3.10;;
18647;SDS011;9453;50.294;18.644;2023-02-26T13:10:03;8.30;;;3.80;;
18647;SDS011;9453;50.294;18.644;2023-02-26T13:12:41;6.93;;;2.97;;
18647;SDS011;9453;50.294;18.644;2023-02-26T13:15:17;7.93;;;2.60;;
18647;SDS011;9453;50.294;18.644;2023-02-26T13:17:57;7.10;;;2.70;;
18647;SDS011;9453;50.294;18.644;2023-02-26T13:20:29;6.13;;;2.50;;
18647;SDS011;9453;50.294;18.644;2023-02-26T13:23:00;8.33;;;2.13;;
18647;SDS011;9453;50.294;18.644;2023-02-26T13:25:32;7.27;;;2.60;;
18647;SDS011;9453;50.294;18.644;2023-02-26T13:28:04;10.03;;;2.60;;
18647;SDS011;9453;50.294;18.644;2023-02-26T13:30:43;6.37;;;2.20;;
18647;SDS011;9453;50.294;18.644;2023-02-26T13:33:15;5.80;;;2.43;;
18647;SDS011;9453;50.294;18.644;2023-02-26T13:35:45;7.27;;;2.00;;
18647;SDS011;9453;50.294;18.644;2023-02-26T13:38:18;6.50;;;2.40;;
18647;SDS011;9453;50.294;18.644;2023-02-26T13:40:55;7.73;;;2.53;;
18647;SDS011;9453;50.294;18.644;2023-02-26T13:43:34;6.40;;;2.40;;
18647;SDS011;9453;50.294;18.644;2023-02-26T13:46:13;4.63;;;2.37;;
18647;SDS011;9453;50.294;18.644;2023-02-26T13:48:50;5.97;;;2.20;;
18647;SDS011;9453;50.294;18.644;2023-02-26T13:51:28;7.40;;;2.70;;
18647;SDS011;9453;50.294;18.644;2023-02-26T13:54:01;6.03;;;2.53;;
18647;SDS011;9453;50.294;18.644;2023-02-26T13:56:51;11.67;;;2.77;;
18647;SDS011;9453;50.294;18.644;2023-02-26T13:59:24;8.53;;;2.60;;
18647;SDS011;9453;50.294;18.644;2023-02-26T14:01:57;5.00;;;2.20;;
18647;SDS011;9453;50.294;18.644;2023-02-26T14:04:28;5.73;;;2.80;;
18647;SDS011;9453;50.294;18.644;2023-02-26T14:06:57;7.70;;;2.50;;
18647;SDS011;9453;50.294;18.644;2023-02-26T14:09:42;5.23;;;2.00;;
18647;SDS011;9453;50.294;18.644;2023-02-26T14:12:22;5.13;;;2.10;;
18647;SDS011;9453;50.294;18.644;2023-02-26T14:17:53;5.50;;;2.67;;
18647;SDS011;9453;50.294;18.644;2023-02-26T14:20:27;6.43;;;2.43;;
18647;SDS011;9453;50.294;18.644;2023-02-26T14:26:03;4.03;;;2.30;;
18647;SDS011;9453;50.294;18.644;2023-02-26T14:28:41;4.97;;;2.23;;
18647;SDS011;9453;50.294;18.644;2023-02-26T14:31:14;5.17;;;2.20;;
18647;SDS011;9453;50.294;18.644;2023-02-26T14:33:44;4.90;;;2.03;;
18647;SDS011;9453;50.294;18.644;2023-02-26T14:36:15;4.07;;;1.97;;
18647;SDS011;9453;50.294;18.644;2023-02-26T14:38:45;4.17;;;2.23;;
18647;SDS011;9453;50.294;18.644;2023-02-26T14:41:22;4.70;;;2.43;;
18647;SDS011;9453;50.294;18.644;2023-02-26T14:43:55;6.90;;;2.53;;
18647;SDS011;9453;50.294;18.644;2023-02-26T14:46:26;6.77;;;2.60;;
18647;SDS011;9453;50.294;18.644;2023-02-26T14:48:54;6.73;;;2.50;;
18647;SDS011;9453;50.294;18.644;2023-02-26T14:51:23;7.30;;;2.67;;
18647;SDS011;9453;50.294;18.644;2023-02-26T14:54:00;3.80;;;2.10;;
18647;SDS011;9453;50.294;18.644;2023-02-26T14:56:45;6.23;;;2.20;;
18647;SDS011;9453;50.294;18.644;2023-02-26T14:59:23;7.70;;;2.50;;
18647;SDS011;9453;50.294;18.644;2023-02-26T15:02:01;5.30;;;2.13;;
18647;SDS011;9453;50.294;18.644;2023-02-26T15:07:54;5.77;;;2.47;;
18647;SDS011;9453;50.294;18.644;2023-02-26T15:10:36;7.27;;;3.10;;
18647;SDS011;9453;50.294;18.644;2023-02-26T15:13:17;5.03;;;2.00;;
18647;SDS011;9453;50.294;18.644;2023-02-26T15:15:59;7.40;;;2.97;;
18647;SDS011;9453;50.294;18.644;2023-02-26T15:21:32;5.67;;;2.40;;
18647;SDS011;9453;50.294;18.644;2023-02-26T15:24:06;9.10;;;2.30;;
18647;SDS011;9453;50.294;18.644;2023-02-26T15:26:39;4.47;;;2.20;;
18647;SDS011;9453;50.294;18.644;2023-02-26T15:29:15;8.57;;;2.50;;
18647;SDS011;9453;50.294;18.644;2023-02-26T15:34:18;8.30;;;3.37;;
18647;SDS011;9453;50.294;18.644;2023-02-26T15:36:47;7.50;;;2.73;;
18647;SDS011;9453;50.294;18.644;2023-02-26T15:39:16;7.57;;;2.97;;
18647;SDS011;9453;50.294;18.644;2023-02-26T15:41:45;6.40;;;3.00;;
18647;SDS011;9453;50.294;18.644;2023-02-26T15:44:16;6.30;;;3.03;;
18647;SDS011;9453;50.294;18.644;2023-02-26T15:46:50;6.83;;;2.80;;
18647;SDS011;9453;50.294;18.644;2023-02-26T15:49:26;9.15;;;3.42;;
18647;SDS011;9453;50.294;18.644;2023-02-26T15:51:57;6.77;;;2.90;;
18647;SDS011;9453;50.294;18.644;2023-02-26T15:54:31;10.23;;;3.83;;
18647;SDS011;9453;50.294;18.644;2023-02-26T15:57:02;7.30;;;3.07;;
18647;SDS011;9453;50.294;18.644;2023-02-26T15:59:32;7.33;;;2.33;;
18647;SDS011;9453;50.294;18.644;2023-02-26T16:02:07;5.10;;;2.53;;
18647;SDS011;9453;50.294;18.644;2023-02-26T16:04:37;9.80;;;2.70;;
18647;SDS011;9453;50.294;18.644;2023-02-26T16:07:12;5.20;;;2.33;;
18647;SDS011;9453;50.294;18.644;2023-02-26T16:09:40;9.37;;;3.43;;
18647;SDS011;9453;50.294;18.644;2023-02-26T16:12:12;8.27;;;3.23;;
18647;SDS011;9453;50.294;18.644;2023-02-26T16:14:43;6.53;;;2.73;;
18647;SDS011;9453;50.294;18.644;2023-02-26T16:17:15;8.30;;;2.63;;
18647;SDS011;9453;50.294;18.644;2023-02-26T16:19:54;8.97;;;3.10;;
18647;SDS011;9453;50.294;18.644;2023-02-26T16:22:24;10.10;;;4.87;;
18647;SDS011;9453;50.294;18.644;2023-02-26T16:24:56;6.33;;;2.83;;
18647;SDS011;9453;50.294;18.644;2023-02-26T16:27:26;6.27;;;2.80;;
18647;SDS011;9453;50.294;18.644;2023-02-26T16:29:56;6.20;;;2.53;;
18647;SDS011;9453;50.294;18.644;2023-02-26T16:34:51;10.73;;;3.60;;
18647;SDS011;9453;50.294;18.644;2023-02-26T16:37:24;10.93;;;3.10;;
18647;SDS011;9453;50.294;18.644;2023-02-26T16:39:57;8.37;;;3.27;;
18647;SDS011;9453;50.294;18.644;2023-02-26T16:42:43;10.73;;;3.27;;
18647;SDS011;9453;50.294;18.644;2023-02-26T16:45:21;9.00;;;3.57;;
18647;SDS011;9453;50.294;18.644;2023-02-26T16:48:00;10.47;;;3.93;;
18647;SDS011;9453;50.294;18.644;2023-02-26T16:50:33;9.17;;;3.70;;
18647;SDS011;9453;50.294;18.644;2023-02-26T16:53:12;10.13;;;3.37;;
18647;SDS011;9453;50.294;18.644;2023-02-26T16:55:49;8.50;;;3.60;;
18647;SDS011;9453;50.294;18.644;2023-02-26T16:58:20;7.53;;;3.53;;
18647;SDS011;9453;50.294;18.644;2023-02-26T17:00:51;7.27;;;3.00;;
18647;SDS011;9453;50.294;18.644;2023-02-26T17:03:24;12.90;;;4.03;;
18647;SDS011;9453;50.294;18.644;2023-02-26T17:05:53;9.67;;;3.73;;
18647;SDS011;9453;50.294;18.644;2023-02-26T17:08:25;9.57;;;3.60;;
18647;SDS011;9453;50.294;18.644;2023-02-26T17:10:58;11.00;;;3.73;;
18647;SDS011;9453;50.294;18.644;2023-02-26T17:13:28;9.17;;;3.40;;
18647;SDS011;9453;50.294;18.644;2023-02-26T17:18:33;8.17;;;3.27;;
18647;SDS011;9453;50.294;18.644;2023-02-26T17:21:02;9.73;;;3.97;;
18647;SDS011;9453;50.294;18.644;2023-02-26T17:23:30;11.63;;;4.00;;
18647;SDS011;9453;50.294;18.644;2023-02-26T17:26:01;11.10;;;4.57;;
18647;SDS011;9453;50.294;18.644;2023-02-26T17:28:29;7.93;;;3.20;;
18647;SDS011;9453;50.294;18.644;2023-02-26T17:31:00;7.43;;;2.97;;
18647;SDS011;9453;50.294;18.644;2023-02-26T17:33:30;8.40;;;3.40;;
18647;SDS011;9453;50.294;18.644;2023-02-26T17:36:00;7.17;;;3.33;;
18647;SDS011;9453;50.294;18.644;2023-02-26T17:38:28;7.67;;;3.20;;
18647;SDS011;9453;50.294;18.644;2023-02-26T17:40:57;8.20;;;3.00;;
18647;SDS011;9453;50.294;18.644;2023-02-26T17:43:24;7.70;;;3.90;;
18647;SDS011;9453;50.294;18.644;2023-02-26T17:45:52;13.43;;;6.00;;
18647;SDS011;9453;50.294;18.644;2023-02-26T17:48:19;12.90;;;5.10;;
18647;SDS011;9453;50.294;18.644;2023-02-26T17:50:48;17.93;;;6.00;;
18647;SDS011;9453;50.294;18.644;2023-02-26T17:53:23;13.93;;;5.63;;
18647;SDS011;9453;50.294;18.644;2023-02-26T17:55:51;14.17;;;6.57;;
18647;SDS011;9453;50.294;18.644;2023-02-26T17:58:21;13.53;;;4.73;;
18647;SDS011;9453;50.294;18.644;2023-02-26T18:00:52;14.87;;;7.03;;
18647;SDS011;9453;50.294;18.644;2023-02-26T18:03:19;11.27;;;5.67;;
18647;SDS011;9453;50.294;18.644;2023-02-26T18:08:18;10.27;;;5.33;;
18647;SDS011;9453;50.294;18.644;2023-02-26T18:10:47;14.80;;;5.13;;
18647;SDS011;9453;50.294;18.644;2023-02-26T18:13:15;10.57;;;5.00;;
18647;SDS011;9453;50.294;18.644;2023-02-26T18:15:42;14.33;;;5.57;;
18647;SDS011;9453;50.294;18.644;2023-02-26T18:18:10;11.67;;;4.40;;
18647;SDS011;9453;50.294;18.644;2023-02-26T18:20:40;11.03;;;4.50;;
18647;SDS011;9453;50.294;18.644;2023-02-26T18:23:08;11.87;;;4.33;;
18647;SDS011;9453;50.294;18.644;2023-02-26T18:25:39;10.73;;;4.10;;
18647;SDS011;9453;50.294;18.644;2023-02-26T18:28:08;11.10;;;4.43;;
18647;SDS011;9453;50.294;18.644;2023-02-26T18:30:38;10.57;;;4.73;;
18647;SDS011;9453;50.294;18.644;2023-02-26T18:33:08;18.73;;;6.30;;
18647;SDS011;9453;50.294;18.644;2023-02-26T18:35:35;11.93;;;4.90;;
18647;SDS011;9453;50.294;18.644;2023-02-26T18:38:09;13.20;;;5.37;;
18647;SDS011;9453;50.294;18.644;2023-02-26T18:40:39;13.20;;;5.20;;
18647;SDS011;9453;50.294;18.644;2023-02-26T18:43:07;15.80;;;5.90;;
18647;SDS011;9453;50.294;18.644;2023-02-26T18:45:39;14.93;;;5.87;;
18647;SDS011;9453;50.294;18.644;2023-02-26T18:48:06;18.67;;;5.60;;
18647;SDS011;9453;50.294;18.644;2023-02-26T18:50:35;15.17;;;5.03;;
18647;SDS011;9453;50.294;18.644;2023-02-26T18:53:02;13.67;;;4.10;;
18647;SDS011;9453;50.294;18.644;2023-02-26T18:55:29;14.17;;;5.23;;
18647;SDS011;9453;50.294;18.644;2023-02-26T18:57:58;17.65;;;6.22;;
18647;SDS011;9453;50.294;18.644;2023-02-26T19:00:28;13.77;;;5.43;;
18647;SDS011;9453;50.294;18.644;2023-02-26T19:02:56;17.23;;;6.50;;
18647;SDS011;9453;50.294;18.644;2023-02-26T19:05:22;20.63;;;6.80;;
18647;SDS011;9453;50.294;18.644;2023-02-26T19:10:16;19.53;;;7.50;;
18647;SDS011;9453;50.294;18.644;2023-02-26T19:12:44;21.30;;;7.50;;
18647;SDS011;9453;50.294;18.644;2023-02-26T19:15:13;18.23;;;7.20;;
18647;SDS011;9453;50.294;18.644;2023-02-26T19:17:40;23.33;;;8.03;;
18647;SDS011;9453;50.294;18.644;2023-02-26T19:20:09;20.20;;;7.03;;
18647;SDS011;9453;50.294;18.644;2023-02-26T19:22:37;26.20;;;8.13;;
18647;SDS011;9453;50.294;18.644;2023-02-26T19:25:06;24.10;;;8.47;;
18647;SDS011;9453;50.294;18.644;2023-02-26T19:27:34;26.00;;;8.97;;
18647;SDS011;9453;50.294;18.644;2023-02-26T19:30:01;29.97;;;10.10;;
18647;SDS011;9453;50.294;18.644;2023-02-26T19:32:30;23.17;;;8.63;;
18647;SDS011;9453;50.294;18.644;2023-02-26T19:34:57;23.77;;;9.57;;
18647;SDS011;9453;50.294;18.644;2023-02-26T19:37:26;25.67;;;10.10;;
18647;SDS011;9453;50.294;18.644;2023-02-26T19:39:53;34.50;;;11.67;;
18647;SDS011;9453;50.294;18.644;2023-02-26T19:42:20;27.83;;;9.87;;
18647;SDS011;9453;50.294;18.644;2023-02-26T19:44:48;24.27;;;9.10;;
18647;SDS011;9453;50.294;18.644;2023-02-26T19:47:15;27.73;;;10.67;;
18647;SDS011;9453;50.294;18.644;2023-02-26T19:49:43;31.57;;;9.57;;
18647;SDS011;9453;50.294;18.644;2023-02-26T19:52:10;20.03;;;8.13;;
18647;SDS011;9453;50.294;18.644;2023-02-26T19:54:37;26.57;;;10.47;;
18647;SDS011;9453;50.294;18.644;2023-02-26T19:57:04;24.97;;;9.40;;
18647;SDS011;9453;50.294;18.644;2023-02-26T19:59:31;21.70;;;9.40;;
18647;SDS011;9453;50.294;18.644;2023-02-26T20:01:58;20.30;;;9.43;;
18647;SDS011;9453;50.294;18.644;2023-02-26T20:04:25;19.43;;;9.33;;
18647;SDS011;9453;50.294;18.644;2023-02-26T20:06:53;20.70;;;9.60;;
18647;SDS011;9453;50.294;18.644;2023-02-26T20:09:20;23.37;;;8.70;;
18647;SDS011;9453;50.294;18.644;2023-02-26T20:11:48;21.47;;;8.40;;
18647;SDS011;9453;50.294;18.644;2023-02-26T20:14:15;24.90;;;10.07;;
18647;SDS011;9453;50.294;18.644;2023-02-26T20:16:42;22.27;;;8.73;;
18647;SDS011;9453;50.294;18.644;2023-02-26T20:19:09;18.07;;;8.33;;
18647;SDS011;9453;50.294;18.644;2023-02-26T20:21:36;30.67;;;12.40;;
18647;SDS011;9453;50.294;18.644;2023-02-26T20:24:05;26.17;;;9.77;;
18647;SDS011;9453;50.294;18.644;2023-02-26T20:26:33;28.00;;;10.93;;
18647;SDS011;9453;50.294;18.644;2023-02-26T20:29:00;28.43;;;11.30;;
18647;SDS011;9453;50.294;18.644;2023-02-26T20:31:26;27.53;;;11.57;;
18647;SDS011;9453;50.294;18.644;2023-02-26T20:33:54;20.10;;;9.00;;
18647;SDS011;9453;50.294;18.644;2023-02-26T20:36:22;19.13;;;8.93;;
18647;SDS011;9453;50.294;18.644;2023-02-26T20:38:51;22.47;;;7.70;;
18647;SDS011;9453;50.294;18.644;2023-02-26T20:41:20;20.43;;;7.67;;
18647;SDS011;9453;50.294;18.644;2023-02-26T20:43:47;17.47;;;7.60;;
18647;SDS011;9453;50.294;18.644;2023-02-26T20:46:14;19.30;;;7.60;;
18647;SDS011;9453;50.294;18.644;2023-02-26T20:48:41;21.07;;;8.53;;
18647;SDS011;9453;50.294;18.644;2023-02-26T20:51:08;22.87;;;7.23;;
18647;SDS011;9453;50.294;18.644;2023-02-26T20:53:36;18.73;;;5.60;;
18647;SDS011;9453;50.294;18.644;2023-02-26T20:56:06;16.93;;;6.10;;
18647;SDS011;9453;50.294;18.644;2023-02-26T20:58:35;18.57;;;6.50;;
18647;SDS011;9453;50.294;18.644;2023-02-26T21:03:35;14.57;;;5.40;;
18647;SDS011;9453;50.294;18.644;2023-02-26T21:06:05;11.30;;;5.47;;
18647;SDS011;9453;50.294;18.644;2023-02-26T21:08:34;18.20;;;6.17;;
18647;SDS011;9453;50.294;18.644;2023-02-26T21:11:01;13.10;;;5.60;;